Time;durP1;ratioP1;P1;durP2;ratioP2;P2;SDS_P1;SDS_P2;PMS_P1;PMS_P2;Temp;Humidity;BMP_temperature;BMP_pressure;BME280_temperature;BME280_humidity;BME280_pressure;Samples;Min_cycle;Max_cycle;Signal;HPM_P1;HPM_P2
2021/06/19 00:00:13;;;;;;;;;;;19.90;99.90;;;;;;4157825;28;20320;-59
2021/06/19 00:02:14;;;;;;;;;;;19.80;99.90;;;;;;4144154;28;19983;-59
2021/06/19 00:04:15;;;;;;;;;;;19.80;99.90;;;;;;4123041;28;19980;-60
2021/06/19 00:06:16;;;;;;;;;;;19.80;99.90;;;;;;4141720;28;19913;-60
2021/06/19 00:08:17;;;;;;;;;;;19.70;99.90;;;;;;4139824;28;19921;-59
2021/06/19 00:10:18;;;;;;;;;;;19.70;99.90;;;;;;4142027;28;20004;-59
2021/06/19 00:12:19;;;;;;;;;;;19.70;99.90;;;;;;4138498;28;19960;-57
2021/06/19 00:14:21;;;;;;;;;;;19.60;99.90;;;;;;4142342;28;19963;-59
2021/06/19 00:16:22;;;;;;;;;;;19.60;99.90;;;;;;4140303;28;19979;-60
2021/06/19 00:18:24;;;;;;;;;;;19.50;99.90;;;;;;4141757;28;19905;-59
2021/06/19 00:20:25;;;;;;;;;;;19.40;99.90;;;;;;4140364;28;19910;-60
2021/06/19 00:22:26;;;;;;;;;;;19.30;99.90;;;;;;4141718;28;20332;-60
2021/06/19 00:24:27;;;;;;;;;;;19.30;99.90;;;;;;4140229;28;19916;-59
2021/06/19 00:26:28;;;;;;;;;;;19.20;99.90;;;;;;4141307;28;19905;-60
2021/06/19 00:28:29;;;;;;;;;;;19.10;99.90;;;;;;4140993;28;19909;-60
2021/06/19 00:30:30;;;;;;;;;;;19.00;99.90;;;;;;4141234;28;19944;-61
2021/06/19 00:32:31;;;;;;;;;;;18.90;99.90;;;;;;4140716;28;19932;-60
2021/06/19 00:34:32;;;;;;;;;;;18.80;99.90;;;;;;4140230;28;19918;-59
2021/06/19 00:36:33;;;;;;;;;;;18.70;99.90;;;;;;4141482;28;19917;-59
2021/06/19 00:38:34;;;;;;;;;;;18.60;99.90;;;;;;4139766;28;20250;-60
2021/06/19 00:40:35;;;;;;;;;;;18.60;99.90;;;;;;4140746;28;19913;-58
2021/06/19 00:42:36;;;;;;;;;;;18.60;99.90;;;;;;4140436;28;20628;-60
2021/06/19 00:44:38;;;;;;;;;;;18.50;99.90;;;;;;4141711;28;19913;-58
2021/06/19 00:46:39;;;;;;;;;;;18.50;99.90;;;;;;4139926;28;19909;-60
2021/06/19 00:48:40;;;;;;;;;;;18.50;99.90;;;;;;4141379;28;19909;-60
2021/06/19 00:50:41;;;;;;;;;;;18.50;99.90;;;;;;4139412;28;19919;-59
2021/06/19 00:52:43;;;;;;;;;;;18.40;99.90;;;;;;4140933;28;19971;-61
2021/06/19 00:54:44;;;;;;;;;;;18.40;99.90;;;;;;4139624;28;19917;-60
2021/06/19 00:56:46;;;;;;;;;;;18.40;99.90;;;;;;4140854;28;19909;-62
2021/06/19 00:58:46;;;;;;;;;;;18.40;99.90;;;;;;4140664;28;19909;-63
2021/06/19 01:00:47;;;;;;;;;;;18.40;99.90;;;;;;4140277;28;20332;-59
2021/06/19 01:02:52;;;;;;;;;;;18.40;99.90;;;;;;4140301;28;20447;-57
2021/06/19 01:04:53;;;;;;;;;;;18.50;99.90;;;;;;4151361;28;19980;-61
2021/06/19 01:06:54;;;;;;;;;;;18.50;99.90;;;;;;4156901;28;19939;-59
2021/06/19 01:08:55;;;;;;;;;;;18.40;99.90;;;;;;4155933;28;19940;-59
2021/06/19 01:10:56;;;;;;;;;;;18.50;99.90;;;;;;4157849;28;19909;-60
2021/06/19 01:12:58;;;;;;;;;;;18.40;99.90;;;;;;4155214;28;19909;-59
2021/06/19 01:14:59;;;;;;;;;;;18.50;99.90;;;;;;4156957;28;19978;-60
2021/06/19 01:17:00;;;;;;;;;;;18.50;99.90;;;;;;4155974;28;19909;-61
2021/06/19 01:19:01;;;;;;;;;;;18.40;99.90;;;;;;4157784;28;19909;-57
2021/06/19 01:21:02;;;;;;;;;;;18.40;99.90;;;;;;4155770;28;19909;-60
2021/06/19 01:23:04;;;;;;;;;;;18.40;99.90;;;;;;4139316;28;19909;-58
2021/06/19 01:25:06;;;;;;;;;;;18.40;99.90;;;;;;4155931;28;19963;-60
2021/06/19 01:27:07;;;;;;;;;;;18.30;99.90;;;;;;4157117;28;19916;-60
2021/06/19 01:29:08;;;;;;;;;;;18.20;99.90;;;;;;4155777;28;19996;-60
2021/06/19 01:31:09;;;;;;;;;;;18.10;99.90;;;;;;4145948;28;20047;-60
2021/06/19 01:33:10;;;;;;;;;;;18.10;99.90;;;;;;4139980;28;20075;-60
2021/06/19 01:35:12;;;;;;;;;;;18.10;99.90;;;;;;4140376;28;20036;-59
2021/06/19 01:37:14;;;;;;;;;;;18.00;99.90;;;;;;4140707;28;19936;-60
2021/06/19 01:39:15;;;;;;;;;;;18.00;99.90;;;;;;4139287;28;19913;-58
2021/06/19 01:41:17;;;;;;;;;;;17.90;99.90;;;;;;4156550;28;19928;-58
2021/06/19 01:43:18;;;;;;;;;;;17.90;99.90;;;;;;4155029;28;19909;-58
2021/06/19 01:45:20;;;;;;;;;;;17.90;99.90;;;;;;4157390;28;19909;-60
2021/06/19 01:47:21;;;;;;;;;;;17.90;99.90;;;;;;4155567;28;19913;-59
2021/06/19 01:49:30;;;;;;;;;;;18.00;99.90;;;;;;4156385;28;19967;-59
2021/06/19 01:51:31;;;;;;;;;;;17.90;99.90;;;;;;4154231;28;20227;-60
2021/06/19 01:53:32;;;;;;;;;;;17.90;99.90;;;;;;4156463;28;19909;-60
2021/06/19 01:55:33;;;;;;;;;;;17.80;99.90;;;;;;4154833;28;19932;-59
2021/06/19 01:57:38;;;;;;;;;;;17.70;99.90;;;;;;4157522;28;19962;-58
2021/06/19 01:59:39;;;;;;;;;;;17.70;99.90;;;;;;4156047;28;19952;-59
2021/06/19 02:01:42;;;;;;;;;;;17.70;99.90;;;;;;4156469;28;19916;-60
2021/06/19 02:03:44;;;;;;;;;;;17.70;99.90;;;;;;4155216;28;19925;-58
2021/06/19 02:05:44;;;;;;;;;;;17.60;99.90;;;;;;4156579;28;19967;-60
2021/06/19 02:07:47;;;;;;;;;;;17.70;99.90;;;;;;4156183;28;19943;-60
2021/06/19 02:09:48;;;;;;;;;;;17.70;99.90;;;;;;4159512;28;19967;-60
2021/06/19 02:11:49;;;;;;;;;;;17.70;99.90;;;;;;4159232;28;20320;-61
2021/06/19 02:13:50;;;;;;;;;;;17.70;99.90;;;;;;4158534;28;19909;-59
2021/06/19 02:15:51;;;;;;;;;;;17.70;99.90;;;;;;4160493;28;19909;-59
2021/06/19 02:17:55;;;;;;;;;;;17.70;99.90;;;;;;4157779;28;19913;-60
2021/06/19 02:19:55;;;;;;;;;;;17.70;99.90;;;;;;4158445;28;19909;-57
2021/06/19 02:21:56;;;;;;;;;;;17.70;99.90;;;;;;4141807;28;19932;-58
2021/06/19 02:23:57;;;;;;;;;;;17.70;99.90;;;;;;4144120;28;19905;-59
2021/06/19 02:25:58;;;;;;;;;;;17.70;99.90;;;;;;4142350;28;19909;-60
2021/06/19 02:28:04;;;;;;;;;;;17.70;99.90;;;;;;4143476;28;19935;-58
2021/06/19 02:30:05;;;;;;;;;;;17.60;99.90;;;;;;4141997;28;19968;-58
2021/06/19 02:32:07;;;;;;;;;;;17.60;99.90;;;;;;4143714;28;19913;-59
2021/06/19 02:34:08;;;;;;;;;;;17.50;99.90;;;;;;4141241;28;19976;-58
2021/06/19 02:36:09;;;;;;;;;;;17.50;99.90;;;;;;4143462;28;19909;-60
2021/06/19 02:38:11;;;;;;;;;;;17.50;99.90;;;;;;4142024;28;19913;-61
2021/06/19 02:40:12;;;;;;;;;;;17.40;99.90;;;;;;4142953;28;19909;-58
2021/06/19 02:42:13;;;;;;;;;;;17.40;99.90;;;;;;4142876;28;20028;-58
2021/06/19 02:44:14;;;;;;;;;;;17.40;99.90;;;;;;4141698;28;19940;-56
2021/06/19 02:46:15;;;;;;;;;;;17.50;99.90;;;;;;4143251;28;20361;-57
2021/06/19 02:48:15;;;;;;;;;;;17.50;99.90;;;;;;4141894;28;19910;-59
2021/06/19 02:50:17;;;;;;;;;;;17.50;99.90;;;;;;4143604;28;20526;-58
2021/06/19 02:52:18;;;;;;;;;;;17.50;99.90;;;;;;4141894;28;19905;-60
2021/06/19 02:54:19;;;;;;;;;;;17.40;99.90;;;;;;4142783;28;19936;-59
2021/06/19 02:56:20;;;;;;;;;;;17.40;99.90;;;;;;4148079;28;20175;-56
2021/06/19 02:58:21;;;;;;;;;;;17.40;99.90;;;;;;4160114;28;19929;-61
2021/06/19 03:00:22;;;;;;;;;;;17.30;99.90;;;;;;4158274;28;19916;-57
2021/06/19 03:02:23;;;;;;;;;;;17.30;99.90;;;;;;4159201;28;19916;-60
2021/06/19 03:04:24;;;;;;;;;;;17.30;99.90;;;;;;4157227;28;19915;-56
2021/06/19 03:06:26;;;;;;;;;;;17.30;99.90;;;;;;4158659;28;19966;-61
2021/06/19 03:08:27;;;;;;;;;;;17.40;99.90;;;;;;4157963;28;19921;-59
2021/06/19 03:10:30;;;;;;;;;;;17.60;99.90;;;;;;4140182;28;19914;-61
2021/06/19 03:12:31;;;;;;;;;;;17.90;99.90;;;;;;4158835;28;20357;-58
2021/06/19 03:14:32;;;;;;;;;;;18.20;99.90;;;;;;4157471;28;20020;-56
2021/06/19 03:16:35;;;;;;;;;;;18.40;99.90;;;;;;4158164;28;19936;-59
2021/06/19 03:18:36;;;;;;;;;;;18.80;99.90;;;;;;4156598;28;19909;-61
2021/06/19 03:20:37;;;;;;;;;;;19.10;99.90;;;;;;4158444;28;19935;-60
2021/06/19 03:22:46;;;;;;;;;;;19.20;99.90;;;;;;4157690;28;19963;-60
2021/06/19 03:24:47;;;;;;;;;;;19.40;99.90;;;;;;4158729;28;19990;-60
2021/06/19 03:26:48;;;;;;;;;;;19.80;99.90;;;;;;4157501;28;19999;-59
2021/06/19 03:28:49;;;;;;;;;;;20.30;99.90;;;;;;4158603;28;19908;-60
2021/06/19 03:30:50;;;;;;;;;;;20.70;99.90;;;;;;4156758;28;20377;-59
2021/06/19 03:32:51;;;;;;;;;;;21.10;99.90;;;;;;4159462;28;20361;-57
2021/06/19 03:34:53;;;;;;;;;;;21.50;99.90;;;;;;4156751;28;19920;-60
2021/06/19 03:36:59;;;;;;;;;;;21.90;99.90;;;;;;4157947;28;19935;-60
2021/06/19 03:39:00;;;;;;;;;;;22.40;99.90;;;;;;4156688;28;19978;-60
2021/06/19 03:41:00;;;;;;;;;;;22.90;99.90;;;;;;4158381;28;19952;-59
2021/06/19 03:43:02;;;;;;;;;;;23.40;99.90;;;;;;4157682;28;19939;-61
2021/06/19 03:45:04;;;;;;;;;;;23.60;99.90;;;;;;4158157;28;19913;-61
2021/06/19 03:47:05;;;;;;;;;;;23.90;99.90;;;;;;4157121;28;19905;-59
2021/06/19 03:49:06;;;;;;;;;;;24.30;99.90;;;;;;4157198;28;19909;-60
2021/06/19 03:51:07;;;;;;;;;;;24.60;99.90;;;;;;4158153;28;19909;-61
2021/06/19 03:53:08;;;;;;;;;;;25.00;99.90;;;;;;4156861;28;19998;-61
2021/06/19 03:55:09;;;;;;;;;;;25.30;99.90;;;;;;4158634;28;19923;-59
2021/06/19 03:57:20;;;;;;;;;;;25.30;99.90;;;;;;4156575;28;19921;-60
2021/06/19 03:59:21;;;;;;;;;;;25.70;99.90;;;;;;4159168;28;19908;-60
2021/06/19 04:01:22;;;;;;;;;;;26.10;99.90;;;;;;4154380;28;19932;-59
2021/06/19 04:03:23;;;;;;;;;;;26.00;99.90;;;;;;4159112;28;20353;-60
2021/06/19 04:05:24;;;;;;;;;;;26.30;99.90;;;;;;4156396;28;19913;-60
2021/06/19 04:07:25;;;;;;;;;;;26.60;99.90;;;;;;4157558;28;19940;-60
2021/06/19 04:09:26;;;;;;;;;;;26.90;99.90;;;;;;4156544;28;20313;-60
2021/06/19 04:11:27;;;;;;;;;;;27.20;99.90;;;;;;4157387;28;19916;-61
2021/06/19 04:13:28;;;;;;;;;;;27.00;99.70;;;;;;4156496;28;20352;-60
2021/06/19 04:15:29;;;;;;;;;;;26.60;99.80;;;;;;4156890;28;19915;-61
2021/06/19 04:17:30;;;;;;;;;;;26.20;99.90;;;;;;4156808;28;19936;-59
2021/06/19 04:19:31;;;;;;;;;;;25.80;99.90;;;;;;4157208;28;19955;-60
2021/06/19 04:21:32;;;;;;;;;;;25.50;99.90;;;;;;4146200;28;20798;-60
2021/06/19 04:23:33;;;;;;;;;;;25.70;99.90;;;;;;4140383;28;19909;-60
2021/06/19 04:25:34;;;;;;;;;;;26.20;99.90;;;;;;4141059;28;19905;-61
2021/06/19 04:28:01;;;;;;;;;;;26.60;99.90;;;;;;4140356;28;20282;-60
2021/06/19 04:30:03;;;;;;;;;;;26.60;99.90;;;;;;4137154;28;19960;-61
2021/06/19 04:32:04;;;;;;;;;;;26.80;99.90;;;;;;4138719;28;19913;-61
2021/06/19 04:34:05;;;;;;;;;;;27.20;99.90;;;;;;4140396;28;19909;-61
2021/06/19 04:36:07;;;;;;;;;;;28.00;99.20;;;;;;4139299;28;20384;-60
2021/06/19 04:38:08;;;;;;;;;;;28.60;97.40;;;;;;4141834;28;19968;-60
2021/06/19 04:40:28;;;;;;;;;;;28.60;96.30;;;;;;4122370;28;19950;-60
2021/06/19 04:42:35;;;;;;;;;;;28.30;96.30;;;;;;4142001;28;19917;-60
2021/06/19 04:46:55;;;;;;;;;;;27.80;96.40;;;;;;4141667;28;19910;-59
2021/06/19 04:48:55;;;;;;;;;;;27.80;96.80;;;;;;4139056;28;19937;-60
2021/06/19 04:50:56;;;;;;;;;;;27.80;96.70;;;;;;4151756;28;20035;-59
2021/06/19 04:52:58;;;;;;;;;;;27.00;96.70;;;;;;4156123;28;19913;-61
2021/06/19 04:54:59;;;;;;;;;;;26.10;98.20;;;;;;4157974;28;19905;-60
2021/06/19 04:57:00;;;;;;;;;;;25.70;99.30;;;;;;4155145;28;19909;-61
2021/06/19 04:59:01;;;;;;;;;;;25.60;99.60;;;;;;4157546;28;19909;-61
2021/06/19 05:01:02;;;;;;;;;;;25.50;99.90;;;;;;4143599;28;19951;-61
2021/06/19 05:03:04;;;;;;;;;;;25.30;99.90;;;;;;4144786;28;20015;-60
2021/06/19 05:05:05;;;;;;;;;;;25.30;99.90;;;;;;4155580;28;19909;-60
2021/06/19 05:07:06;;;;;;;;;;;25.20;99.90;;;;;;4155299;28;19916;-61
2021/06/19 05:09:07;;;;;;;;;;;25.00;99.90;;;;;;4156940;28;19920;-61
2021/06/19 05:11:08;;;;;;;;;;;24.80;99.90;;;;;;4154768;28;19913;-62
2021/06/19 05:13:09;;;;;;;;;;;24.70;99.90;;;;;;4150931;28;19909;-61
2021/06/19 05:15:11;;;;;;;;;;;24.70;99.90;;;;;;4142310;28;20364;-60
2021/06/19 05:17:12;;;;;;;;;;;25.20;99.90;;;;;;4140838;28;19963;-61
2021/06/19 05:19:13;;;;;;;;;;;25.70;99.90;;;;;;4151474;28;19913;-61
2021/06/19 05:21:14;;;;;;;;;;;26.00;99.90;;;;;;4156350;28;19944;-60
2021/06/19 05:23:15;;;;;;;;;;;26.10;99.30;;;;;;4155242;28;19983;-60
2021/06/19 05:25:16;;;;;;;;;;;25.90;99.30;;;;;;4156878;28;19913;-59
2021/06/19 05:27:17;;;;;;;;;;;26.10;99.50;;;;;;4155413;28;20323;-60
2021/06/19 05:29:19;;;;;;;;;;;26.80;98.60;;;;;;4157187;28;19916;-61
2021/06/19 05:31:20;;;;;;;;;;;27.70;97.60;;;;;;4154809;28;19963;-58
2021/06/19 05:33:21;;;;;;;;;;;28.20;96.20;;;;;;4155366;28;19909;-59
2021/06/19 05:35:23;;;;;;;;;;;28.60;94.30;;;;;;4155346;28;19928;-63
2021/06/19 05:37:24;;;;;;;;;;;28.30;94.20;;;;;;4155607;28;19971;-60
2021/06/19 05:39:25;;;;;;;;;;;28.30;93.60;;;;;;4153996;28;19915;-60
2021/06/19 05:41:26;;;;;;;;;;;28.50;93.80;;;;;;4151106;28;19961;-61
2021/06/19 05:43:27;;;;;;;;;;;28.70;92.60;;;;;;4141298;28;19921;-61
2021/06/19 05:45:28;;;;;;;;;;;29.10;91.60;;;;;;4139451;28;19917;-62
2021/06/19 05:47:29;;;;;;;;;;;29.60;90.70;;;;;;4140109;28;19996;-60
2021/06/19 05:49:30;;;;;;;;;;;30.20;89.50;;;;;;4138730;28;20297;-60
2021/06/19 05:51:31;;;;;;;;;;;30.50;86.50;;;;;;4139506;28;19917;-61
2021/06/19 05:53:32;;;;;;;;;;;30.60;85.40;;;;;;4139940;28;19973;-62
2021/06/19 05:55:33;;;;;;;;;;;30.70;84.80;;;;;;4151888;28;19919;-60
2021/06/19 05:57:34;;;;;;;;;;;30.90;84.70;;;;;;4139354;28;19909;-60
2021/06/19 05:59:35;;;;;;;;;;;31.00;82.60;;;;;;4141048;28;19956;-62
2021/06/19 06:01:36;;;;;;;;;;;30.70;82.60;;;;;;4146880;28;19921;-61
2021/06/19 06:03:37;;;;;;;;;;;30.60;81.20;;;;;;4154616;28;19917;-58
2021/06/19 06:05:38;;;;;;;;;;;30.30;82.60;;;;;;4154949;28;19909;-59
2021/06/19 06:07:39;;;;;;;;;;;30.30;82.10;;;;;;4148886;28;20476;-61
2021/06/19 06:09:40;;;;;;;;;;;30.20;82.60;;;;;;4144308;28;19925;-64
2021/06/19 06:11:41;;;;;;;;;;;30.70;82.50;;;;;;4152329;28;19912;-62
2021/06/19 06:13:42;;;;;;;;;;;31.30;80.60;;;;;;4153739;28;19944;-62
2021/06/19 06:15:43;;;;;;;;;;;;;;;;;;4154387;28;20001;-63
2021/06/19 06:17:44;;;;;;;;;;;31.80;77.70;;;;;;4153903;28;19913;-60
2021/06/19 06:19:45;;;;;;;;;;;32.10;75.10;;;;;;4143868;28;19924;-61
2021/06/19 06:21:46;;;;;;;;;;;31.90;72.10;;;;;;4151614;28;19912;-61
2021/06/19 06:23:47;;;;;;;;;;;31.50;72.20;;;;;;4137871;28;19997;-60
2021/06/19 06:25:47;;;;;;;;;;;30.50;71.60;;;;;;4140222;28;20381;-61
2021/06/19 06:27:48;;;;;;;;;;;29.50;77.10;;;;;;4137479;28;19914;-61
2021/06/19 06:29:49;;;;;;;;;;;28.90;78.80;;;;;;4140453;28;19913;-61
2021/06/19 06:31:51;;;;;;;;;;;28.80;78.30;;;;;;4138155;28;19909;-59
2021/06/19 06:33:52;;;;;;;;;;;28.80;78.60;;;;;;4139067;28;19971;-59
2021/06/19 06:35:54;;;;;;;;;;;28.90;77.80;;;;;;4138991;28;19905;-62
2021/06/19 06:37:55;;;;;;;;;;;29.20;77.60;;;;;;4138296;28;19951;-62
2021/06/19 06:39:56;;;;;;;;;;;29.70;76.70;;;;;;4138672;28;20352;-60
2021/06/19 06:41:58;;;;;;;;;;;29.90;76.20;;;;;;4138561;28;19909;-58
2021/06/19 06:43:59;;;;;;;;;;;30.00;75.30;;;;;;4139522;28;20373;-62
2021/06/19 06:46:00;;;;;;;;;;;30.20;75.20;;;;;;4138221;28;19952;-61
2021/06/19 06:48:01;;;;;;;;;;;30.20;73.90;;;;;;4139112;28;19917;-60
2021/06/19 06:50:02;;;;;;;;;;;29.00;74.60;;;;;;4138137;28;19936;-61
2021/06/19 06:52:03;;;;;;;;;;;27.90;77.70;;;;;;4139635;28;19914;-60
2021/06/19 06:54:05;;;;;;;;;;;27.50;81.20;;;;;;4139323;28;19917;-62
2021/06/19 06:56:06;;;;;;;;;;;27.30;82.60;;;;;;4124986;28;19909;-61
2021/06/19 06:58:07;;;;;;;;;;;27.30;82.40;;;;;;4141019;28;20008;-61
2021/06/19 07:00:08;;;;;;;;;;;27.20;82.10;;;;;;4143773;28;19992;-60
2021/06/19 07:02:09;;;;;;;;;;;27.20;83.70;;;;;;4141068;28;19960;-60
2021/06/19 07:04:10;;;;;;;;;;;27.40;84.40;;;;;;4142541;28;19909;-63
2021/06/19 07:06:11;;;;;;;;;;;27.80;83.60;;;;;;4141420;28;19905;-60
2021/06/19 07:08:12;;;;;;;;;;;27.50;82.70;;;;;;4140890;28;20348;-60
2021/06/19 07:10:14;;;;;;;;;;;26.60;84.10;;;;;;4142024;28;19913;-61
2021/06/19 07:12:15;;;;;;;;;;;26.40;86.30;;;;;;4141177;28;20365;-61
2021/06/19 07:14:16;;;;;;;;;;;26.20;87.20;;;;;;4142646;28;19906;-60
2021/06/19 07:16:17;;;;;;;;;;;26.00;88.30;;;;;;4140515;28;19931;-59
2021/06/19 07:18:18;;;;;;;;;;;25.50;90.10;;;;;;4141461;28;19910;-63
2021/06/19 07:20:19;;;;;;;;;;;25.30;90.30;;;;;;4141045;28;20362;-61
2021/06/19 07:22:22;;;;;;;;;;;25.30;90.80;;;;;;4141980;28;19975;-67
2021/06/19 07:24:22;;;;;;;;;;;25.30;91.00;;;;;;4141274;28;19917;-61
2021/06/19 07:26:23;;;;;;;;;;;25.30;91.30;;;;;;4142251;28;19910;-58
2021/06/19 07:28:24;;;;;;;;;;;25.70;91.50;;;;;;4140479;28;20362;-61
2021/06/19 07:30:26;;;;;;;;;;;25.80;91.20;;;;;;4145769;28;19913;-62
2021/06/19 07:32:27;;;;;;;;;;;25.70;91.30;;;;;;4140855;28;19917;-60
2021/06/19 07:34:29;;;;;;;;;;;25.80;91.50;;;;;;4141607;28;19936;-61
2021/06/19 07:36:30;;;;;;;;;;;26.40;91.00;;;;;;4141005;28;19905;-61
2021/06/19 07:38:32;;;;;;;;;;;26.30;90.70;;;;;;4141153;28;19963;-76
2021/06/19 07:40:33;;;;;;;;;;;25.90;90.60;;;;;;4141113;28;19909;-60
2021/06/19 07:42:36;;;;;;;;;;;25.60;91.30;;;;;;4139236;28;19917;-61
2021/06/19 07:44:37;;;;;;;;;;;25.80;91.60;;;;;;4141570;28;19981;-59
2021/06/19 07:46:37;;;;;;;;;;;26.10;91.20;;;;;;4139647;28;20020;-62
2021/06/19 07:48:38;;;;;;;;;;;26.00;90.50;;;;;;4142065;28;19919;-63
2021/06/19 07:50:40;;;;;;;;;;;25.40;91.20;;;;;;4140647;28;20016;-62
2021/06/19 07:52:42;;;;;;;;;;;24.90;92.00;;;;;;4141061;28;19910;-60
2021/06/19 07:54:43;;;;;;;;;;;25.10;92.40;;;;;;4139634;28;19909;-64
2021/06/19 07:56:44;;;;;;;;;;;25.00;92.30;;;;;;4141932;28;19916;-60
2021/06/19 07:58:45;;;;;;;;;;;25.10;92.50;;;;;;4140319;28;19932;-60
2021/06/19 08:00:46;;;;;;;;;;;25.30;92.70;;;;;;4141466;28;20362;-64
2021/06/19 08:02:48;;;;;;;;;;;25.10;92.40;;;;;;4140122;28;19952;-64
2021/06/19 08:04:49;;;;;;;;;;;25.20;92.40;;;;;;4140956;28;19909;-62
2021/06/19 08:06:50;;;;;;;;;;;25.30;92.40;;;;;;4139816;28;19979;-64
2021/06/19 08:08:54;;;;;;;;;;;25.20;93.10;;;;;;4143896;28;20475;-62
2021/06/19 08:10:55;;;;;;;;;;;25.30;93.40;;;;;;4140926;28;19913;-62
2021/06/19 08:12:56;;;;;;;;;;;25.30;93.50;;;;;;4140284;28;19956;-62
2021/06/19 08:14:57;;;;;;;;;;;25.00;91.90;;;;;;4140414;28;19909;-60
2021/06/19 08:17:03;;;;;;;;;;;24.80;91.80;;;;;;4140114;28;19916;-63
2021/06/19 08:19:04;;;;;;;;;;;24.60;92.20;;;;;;4140408;28;19956;-62
2021/06/19 08:21:05;;;;;;;;;;;24.70;92.60;;;;;;4139146;28;20361;-64
2021/06/19 08:23:06;;;;;;;;;;;24.80;92.30;;;;;;4150621;28;19920;-65
2021/06/19 08:25:07;;;;;;;;;;;24.80;91.90;;;;;;4156285;28;19928;-66
2021/06/19 08:27:08;;;;;;;;;;;24.80;92.10;;;;;;4157172;28;20698;-62
2021/06/19 08:29:09;;;;;;;;;;;24.90;92.60;;;;;;4156211;28;19920;-64
2021/06/19 08:31:10;;;;;;;;;;;24.70;92.50;;;;;;4143094;28;19917;-60
2021/06/19 08:33:11;;;;;;;;;;;24.60;92.70;;;;;;4140450;28;19932;-61
2021/06/19 08:35:12;;;;;;;;;;;24.60;92.80;;;;;;4140117;28;19905;-69
2021/06/19 08:37:13;;;;;;;;;;;24.60;93.00;;;;;;4138739;28;20365;-62
2021/06/19 08:39:14;;;;;;;;;;;24.60;93.00;;;;;;4140718;28;19910;-61
2021/06/19 08:41:16;;;;;;;;;;;24.60;93.20;;;;;;4139591;28;19948;-61
2021/06/19 08:43:18;;;;;;;;;;;24.40;92.30;;;;;;4139358;28;19976;-64
2021/06/19 08:45:20;;;;;;;;;;;24.20;92.80;;;;;;4140031;28;19909;-62
2021/06/19 08:47:23;;;;;;;;;;;24.20;93.00;;;;;;4136896;28;19909;-63
2021/06/19 08:49:25;;;;;;;;;;;24.20;92.90;;;;;;4141299;28;19979;-63
2021/06/19 08:51:26;;;;;;;;;;;24.00;92.60;;;;;;4139568;28;19964;-63
2021/06/19 08:53:27;;;;;;;;;;;24.10;92.60;;;;;;4141227;28;20328;-62
2021/06/19 08:55:28;;;;;;;;;;;24.00;93.00;;;;;;4139009;28;19921;-61
2021/06/19 08:57:29;;;;;;;;;;;24.10;93.00;;;;;;4141267;28;19909;-63
2021/06/19 08:59:30;;;;;;;;;;;24.20;92.70;;;;;;4139591;28;19953;-65
2021/06/19 09:01:31;;;;;;;;;;;24.20;91.90;;;;;;4140471;28;19915;-65
2021/06/19 09:03:32;;;;;;;;;;;24.00;91.70;;;;;;4142730;28;19917;-62
2021/06/19 09:05:33;;;;;;;;;;;23.80;92.30;;;;;;4151932;28;19959;-66
2021/06/19 09:07:35;;;;;;;;;;;23.80;92.80;;;;;;4155569;28;20005;-64
2021/06/19 09:09:36;;;;;;;;;;;23.80;92.70;;;;;;4155527;28;19983;-61
2021/06/19 09:11:38;;;;;;;;;;;23.90;92.90;;;;;;4155234;28;19912;-61
2021/06/19 09:13:39;;;;;;;;;;;23.90;92.70;;;;;;4137516;28;19914;-64
2021/06/19 09:15:42;;;;;;;;;;;23.80;93.20;;;;;;4155142;28;19909;-62
2021/06/19 09:17:43;;;;;;;;;;;23.80;93.50;;;;;;4154931;28;20380;-63
2021/06/19 09:19:44;;;;;;;;;;;23.80;94.70;;;;;;4155811;28;19936;-60
2021/06/19 09:21:45;;;;;;;;;;;23.90;95.70;;;;;;4155633;28;20358;-62
2021/06/19 09:23:46;;;;;;;;;;;23.50;97.40;;;;;;4152447;28;19921;-63
2021/06/19 09:26:03;;;;;;;;;;;23.40;98.20;;;;;;4154678;28;19908;-69
2021/06/19 09:28:06;;;;;;;;;;;23.20;99.20;;;;;;4156848;28;19912;-63
2021/06/19 09:30:07;;;;;;;;;;;23.10;99.50;;;;;;4154485;28;19913;-63
2021/06/19 09:32:08;;;;;;;;;;;23.00;99.90;;;;;;4155845;28;19936;-59
2021/06/19 09:34:10;;;;;;;;;;;22.90;99.90;;;;;;4154514;28;20391;-61
2021/06/19 09:36:11;;;;;;;;;;;22.80;99.90;;;;;;4156359;28;19913;-62
2021/06/19 09:38:14;;;;;;;;;;;22.60;99.90;;;;;;4154789;28;19925;-61
2021/06/19 09:40:19;;;;;;;;;;;22.50;99.90;;;;;;4157110;28;20306;-58
2021/06/19 09:42:24;;;;;;;;;;;22.30;99.90;;;;;;4130785;28;19914;-62
2021/06/19 09:44:41;;;;;;;;;;;22.30;99.90;;;;;;4139952;28;19917;-62
2021/06/19 09:46:55;;;;;;;;;;;22.30;99.90;;;;;;4138557;28;19956;-63
2021/06/19 09:49:07;;;;;;;;;;;22.40;99.90;;;;;;4139438;28;19960;-59
2021/06/19 09:51:28;;;;;;;;;;;22.30;99.90;;;;;;4138034;28;19913;-58
2021/06/19 09:53:29;;;;;;;;;;;22.30;99.90;;;;;;4138447;28;19909;-60
2021/06/19 09:55:30;;;;;;;;;;;22.40;99.90;;;;;;4139605;28;19913;-59
2021/06/19 09:57:41;;;;;;;;;;;22.40;99.90;;;;;;4144254;28;19919;-61
2021/06/19 09:59:43;;;;;;;;;;;22.50;99.90;;;;;;4146622;28;19909;-62
2021/06/19 10:01:44;;;;;;;;;;;22.50;99.90;;;;;;4138918;28;20326;-60
2021/06/19 10:03:57;;;;;;;;;;;22.70;99.90;;;;;;4138300;28;19920;-60
2021/06/19 10:05:58;;;;;;;;;;;22.70;99.90;;;;;;4139151;28;19917;-61
2021/06/19 10:07:59;;;;;;;;;;;22.80;99.90;;;;;;4137821;28;19980;-61
2021/06/19 10:10:01;;;;;;;;;;;23.00;99.90;;;;;;4139030;28;20372;-62
2021/06/19 10:12:02;;;;;;;;;;;23.00;99.90;;;;;;4139760;28;19977;-58
2021/06/19 10:14:03;;;;;;;;;;;23.20;99.90;;;;;;4138330;28;19909;-59
2021/06/19 10:16:04;;;;;;;;;;;23.30;99.90;;;;;;4139005;28;19917;-61
2021/06/19 10:18:06;;;;;;;;;;;23.30;99.90;;;;;;4138485;28;20324;-59
2021/06/19 10:20:11;;;;;;;;;;;23.20;99.90;;;;;;4139066;28;19909;-60
2021/06/19 10:22:12;;;;;;;;;;;23.20;99.90;;;;;;4137765;28;19906;-58
2021/06/19 10:24:13;;;;;;;;;;;23.20;99.90;;;;;;4140024;28;20716;-60
2021/06/19 10:26:15;;;;;;;;;;;23.30;99.90;;;;;;4138493;28;19917;-58
2021/06/19 10:28:17;;;;;;;;;;;23.40;99.90;;;;;;4139511;28;19956;-59
2021/06/19 10:30:22;;;;;;;;;;;23.50;99.90;;;;;;4124168;28;19971;-59
2021/06/19 10:32:50;;;;;;;;;;;23.50;99.90;;;;;;4142858;28;19971;-56
2021/06/19 10:34:52;;;;;;;;;;;23.60;99.90;;;;;;4137309;28;19909;-56
2021/06/19 10:36:55;;;;;;;;;;;23.70;99.90;;;;;;4142680;28;20209;-59
2021/06/19 10:38:57;;;;;;;;;;;23.70;99.90;;;;;;4141008;28;19917;-58
2021/06/19 10:40:59;;;;;;;;;;;23.80;99.90;;;;;;4141813;28;19929;-59
2021/06/19 10:43:12;;;;;;;;;;;23.90;99.90;;;;;;4140110;28;19909;-59
2021/06/19 10:45:20;;;;;;;;;;;24.00;99.60;;;;;;4142624;28;19937;-54
2021/06/19 10:47:22;;;;;;;;;;;24.10;99.20;;;;;;4140793;28;19979;-59
2021/06/19 10:49:24;;;;;;;;;;;24.20;98.40;;;;;;4150887;28;19908;-63
2021/06/19 10:51:27;;;;;;;;;;;24.50;98.30;;;;;;4157609;28;19979;-58
2021/06/19 10:53:28;;;;;;;;;;;24.80;98.10;;;;;;4158573;28;20262;-58
2021/06/19 10:55:29;;;;;;;;;;;24.70;97.40;;;;;;4150942;28;19920;-57
2021/06/19 10:57:49;;;;;;;;;;;24.70;96.50;;;;;;4141039;28;19905;-61
2021/06/19 11:00:10;;;;;;;;;;;24.80;96.50;;;;;;4142183;28;19909;-60
2021/06/19 11:02:10;;;;;;;;;;;24.90;95.70;;;;;;4141608;28;20443;-64
2021/06/19 11:04:30;;;;;;;;;;;24.80;95.10;;;;;;4141244;28;19918;-57
2021/06/19 11:06:36;;;;;;;;;;;24.70;94.90;;;;;;4142054;28;19936;-58
2021/06/19 11:08:56;;;;;;;;;;;24.50;95.20;;;;;;4140052;28;19975;-57
2021/06/19 11:10:58;;;;;;;;;;;24.60;95.30;;;;;;4142920;28;19909;-59
2021/06/19 11:13:21;;;;;;;;;;;24.80;94.70;;;;;;4140145;28;20195;-59
2021/06/19 11:15:32;;;;;;;;;;;25.00;94.50;;;;;;4142614;28;19913;-55
2021/06/19 11:17:33;;;;;;;;;;;25.10;94.40;;;;;;4140140;28;19909;-60
2021/06/19 11:19:35;;;;;;;;;;;25.00;94.50;;;;;;4142112;28;19909;-58
2021/06/19 11:21:38;;;;;;;;;;;24.80;94.40;;;;;;4140470;28;19960;-60
2021/06/19 11:23:57;;;;;;;;;;;24.80;94.60;;;;;;4141427;28;19944;-59
2021/06/19 11:26:03;;;;;;;;;;;24.90;94.50;;;;;;4140588;28;19968;-58
2021/06/19 11:28:04;;;;;;;;;;;25.00;94.20;;;;;;4142588;28;19963;-58
2021/06/19 11:30:05;;;;;;;;;;;25.00;94.60;;;;;;4153314;28;19912;-59
2021/06/19 11:32:26;;;;;;;;;;;24.80;94.30;;;;;;4157617;28;19909;-61
2021/06/19 11:34:40;;;;;;;;;;;24.60;94.50;;;;;;4157429;28;19956;-64
2021/06/19 11:36:41;;;;;;;;;;;24.70;94.40;;;;;;4158453;28;20350;-71
2021/06/19 11:38:45;;;;;;;;;;;24.70;94.10;;;;;;4156987;28;19972;-62
2021/06/19 11:40:47;;;;;;;;;;;24.80;93.90;;;;;;4156354;28;19909;-62
2021/06/19 11:42:48;;;;;;;;;;;24.80;93.70;;;;;;4157786;28;20328;-63
2021/06/19 11:44:49;;;;;;;;;;;25.10;93.80;;;;;;4156994;28;19916;-60
2021/06/19 11:46:51;;;;;;;;;;;25.20;93.60;;;;;;4157960;28;19909;-58
2021/06/19 11:48:53;;;;;;;;;;;25.50;93.40;;;;;;4156235;28;19917;-60
2021/06/19 11:51:07;;;;;;;;;;;25.70;93.00;;;;;;4157663;28;19963;-57
2021/06/19 11:53:26;;;;;;;;;;;26.00;92.70;;;;;;4156083;28;20516;-63
2021/06/19 11:55:27;;;;;;;;;;;25.90;91.70;;;;;;4157113;28;19963;-60